Terminal Aerodrome Forecast
Issued by NWS

Home | Current Version | Previous Version | Text Only | Print | Product List | Glossary On
Versions: 1 2 3 4 5 6 7 8 9 10 11 12
000
FTUS45 KRIW 202300
TAFCPR
TAF
KCPR 202326Z 2100/2124 26009KT P6SM VCSH SCT080 BKN120
     FM210100 33008KT P6SM VCSH BKN080
     FM210800 21007KT P6SM SCT090 BKN150
     FM211600 23016G24KT P6SM SCT080 BKN150=

USA.gov is the U.S. government's official web portal to all federal, state and local government web resources and services.